sensor_id;sensor_type;location;lat;lon;timestamp;P1;durP1;ratioP1;P2;durP2;ratioP2
73841;SDS011;62184;52.006;5.924;2022-08-21T00:00:05;9.65;;;3.53;;
73841;SDS011;62184;52.006;5.924;2022-08-21T00:02:43;7.57;;;3.30;;
73841;SDS011;62184;52.006;5.924;2022-08-21T00:05:14;8.77;;;4.65;;
73841;SDS011;62184;52.006;5.924;2022-08-21T00:07:41;6.30;;;3.60;;
73841;SDS011;62184;52.006;5.924;2022-08-21T00:10:10;10.15;;;4.75;;
73841;SDS011;62184;52.006;5.924;2022-08-21T00:12:38;8.60;;;4.47;;
73841;SDS011;62184;52.006;5.924;2022-08-21T00:15:07;9.85;;;4.63;;
73841;SDS011;62184;52.006;5.924;2022-08-21T00:17:35;9.55;;;4.40;;
73841;SDS011;62184;52.006;5.924;2022-08-21T00:20:03;9.57;;;3.57;;
73841;SDS011;62184;52.006;5.924;2022-08-21T00:22:30;7.28;;;3.85;;
73841;SDS011;62184;52.006;5.924;2022-08-21T00:24:56;10.77;;;5.32;;
73841;SDS011;62184;52.006;5.924;2022-08-21T00:27:25;10.00;;;4.30;;
73841;SDS011;62184;52.006;5.924;2022-08-21T00:29:52;8.50;;;4.63;;
73841;SDS011;62184;52.006;5.924;2022-08-21T00:32:21;7.33;;;4.00;;
73841;SDS011;62184;52.006;5.924;2022-08-21T00:34:51;7.35;;;3.70;;
73841;SDS011;62184;52.006;5.924;2022-08-21T00:37:18;10.02;;;4.22;;
73841;SDS011;62184;52.006;5.924;2022-08-21T00:39:46;8.43;;;4.00;;
73841;SDS011;62184;52.006;5.924;2022-08-21T00:42:13;8.23;;;4.75;;
73841;SDS011;62184;52.006;5.924;2022-08-21T00:44:42;8.30;;;3.57;;
73841;SDS011;62184;52.006;5.924;2022-08-21T00:47:13;10.10;;;4.05;;
73841;SDS011;62184;52.006;5.924;2022-08-21T00:49:40;7.65;;;3.65;;
73841;SDS011;62184;52.006;5.924;2022-08-21T00:52:07;8.75;;;3.97;;
73841;SDS011;62184;52.006;5.924;2022-08-21T00:54:41;8.38;;;3.83;;
73841;SDS011;62184;52.006;5.924;2022-08-21T00:57:09;8.97;;;3.87;;
73841;SDS011;62184;52.006;5.924;2022-08-21T00:59:44;9.65;;;4.10;;
73841;SDS011;62184;52.006;5.924;2022-08-21T01:02:15;8.32;;;3.65;;
73841;SDS011;62184;52.006;5.924;2022-08-21T01:04:43;9.60;;;4.00;;
73841;SDS011;62184;52.006;5.924;2022-08-21T01:07:09;9.43;;;4.68;;
73841;SDS011;62184;52.006;5.924;2022-08-21T01:09:36;11.03;;;3.97;;
73841;SDS011;62184;52.006;5.924;2022-08-21T01:12:03;9.13;;;4.50;;
73841;SDS011;62184;52.006;5.924;2022-08-21T01:14:30;9.75;;;3.97;;
73841;SDS011;62184;52.006;5.924;2022-08-21T01:17:00;8.95;;;4.43;;
73841;SDS011;62184;52.006;5.924;2022-08-21T01:19:28;8.98;;;5.55;;
73841;SDS011;62184;52.006;5.924;2022-08-21T01:21:58;9.97;;;4.57;;
73841;SDS011;62184;52.006;5.924;2022-08-21T01:24:25;9.68;;;4.70;;
73841;SDS011;62184;52.006;5.924;2022-08-21T01:26:52;8.98;;;5.22;;
73841;SDS011;62184;52.006;5.924;2022-08-21T01:29:23;10.32;;;5.20;;
73841;SDS011;62184;52.006;5.924;2022-08-21T01:31:58;10.95;;;5.32;;
73841;SDS011;62184;52.006;5.924;2022-08-21T01:34:28;9.70;;;5.60;;
73841;SDS011;62184;52.006;5.924;2022-08-21T01:36:55;11.82;;;5.13;;
73841;SDS011;62184;52.006;5.924;2022-08-21T01:39:24;11.82;;;5.43;;
73841;SDS011;62184;52.006;5.924;2022-08-21T01:41:50;10.27;;;5.20;;
73841;SDS011;62184;52.006;5.924;2022-08-21T01:44:20;10.73;;;5.72;;
73841;SDS011;62184;52.006;5.924;2022-08-21T01:46:46;9.67;;;5.47;;
73841;SDS011;62184;52.006;5.924;2022-08-21T01:49:13;9.73;;;5.32;;
73841;SDS011;62184;52.006;5.924;2022-08-21T01:51:40;8.27;;;4.85;;
73841;SDS011;62184;52.006;5.924;2022-08-21T01:54:10;8.68;;;4.70;;
73841;SDS011;62184;52.006;5.924;2022-08-21T01:56:37;10.27;;;5.55;;
73841;SDS011;62184;52.006;5.924;2022-08-21T01:59:08;8.90;;;5.20;;
73841;SDS011;62184;52.006;5.924;2022-08-21T02:01:35;12.30;;;5.38;;
73841;SDS011;62184;52.006;5.924;2022-08-21T02:04:03;12.23;;;6.35;;
73841;SDS011;62184;52.006;5.924;2022-08-21T02:06:29;12.93;;;5.85;;
73841;SDS011;62184;52.006;5.924;2022-08-21T02:08:55;10.68;;;5.22;;
73841;SDS011;62184;52.006;5.924;2022-08-21T02:11:25;11.07;;;5.40;;
73841;SDS011;62184;52.006;5.924;2022-08-21T02:13:51;10.98;;;6.15;;
73841;SDS011;62184;52.006;5.924;2022-08-21T02:16:17;10.50;;;5.63;;
73841;SDS011;62184;52.006;5.924;2022-08-21T02:18:44;9.73;;;5.40;;
73841;SDS011;62184;52.006;5.924;2022-08-21T02:21:10;11.45;;;5.95;;
73841;SDS011;62184;52.006;5.924;2022-08-21T02:23:36;12.90;;;6.60;;
73841;SDS011;62184;52.006;5.924;2022-08-21T02:26:04;12.80;;;5.53;;
73841;SDS011;62184;52.006;5.924;2022-08-21T02:28:36;12.52;;;6.03;;
73841;SDS011;62184;52.006;5.924;2022-08-21T02:31:03;9.65;;;5.80;;
73841;SDS011;62184;52.006;5.924;2022-08-21T02:33:31;12.82;;;6.70;;
73841;SDS011;62184;52.006;5.924;2022-08-21T02:35:58;11.17;;;5.57;;
73841;SDS011;62184;52.006;5.924;2022-08-21T02:38:27;11.73;;;6.28;;
73841;SDS011;62184;52.006;5.924;2022-08-21T02:40:57;13.60;;;6.55;;
73841;SDS011;62184;52.006;5.924;2022-08-21T02:43:24;11.02;;;6.03;;
73841;SDS011;62184;52.006;5.924;2022-08-21T02:45:56;12.75;;;6.45;;
73841;SDS011;62184;52.006;5.924;2022-08-21T02:48:25;10.73;;;6.63;;
73841;SDS011;62184;52.006;5.924;2022-08-21T02:50:57;14.00;;;6.78;;
73841;SDS011;62184;52.006;5.924;2022-08-21T02:53:27;11.40;;;6.70;;
73841;SDS011;62184;52.006;5.924;2022-08-21T02:55:56;13.05;;;7.38;;
73841;SDS011;62184;52.006;5.924;2022-08-21T02:58:25;12.85;;;7.47;;
73841;SDS011;62184;52.006;5.924;2022-08-21T03:00:57;12.40;;;6.20;;
73841;SDS011;62184;52.006;5.924;2022-08-21T03:03:23;13.30;;;6.53;;
73841;SDS011;62184;52.006;5.924;2022-08-21T03:05:51;15.32;;;6.78;;
73841;SDS011;62184;52.006;5.924;2022-08-21T03:08:18;15.55;;;6.68;;
73841;SDS011;62184;52.006;5.924;2022-08-21T03:10:49;12.10;;;6.90;;
73841;SDS011;62184;52.006;5.924;2022-08-21T03:13:17;11.87;;;7.07;;
73841;SDS011;62184;52.006;5.924;2022-08-21T03:15:46;14.07;;;6.90;;
73841;SDS011;62184;52.006;5.924;2022-08-21T03:18:16;11.75;;;6.95;;
73841;SDS011;62184;52.006;5.924;2022-08-21T03:20:44;14.50;;;7.38;;
73841;SDS011;62184;52.006;5.924;2022-08-21T03:23:11;12.32;;;7.65;;
73841;SDS011;62184;52.006;5.924;2022-08-21T03:25:38;11.87;;;6.23;;
73841;SDS011;62184;52.006;5.924;2022-08-21T03:28:08;11.10;;;6.75;;
73841;SDS011;62184;52.006;5.924;2022-08-21T03:30:38;15.38;;;7.43;;
73841;SDS011;62184;52.006;5.924;2022-08-21T03:33:05;13.35;;;7.65;;
73841;SDS011;62184;52.006;5.924;2022-08-21T03:35:34;11.45;;;6.93;;
73841;SDS011;62184;52.006;5.924;2022-08-21T03:38:00;13.13;;;6.97;;
73841;SDS011;62184;52.006;5.924;2022-08-21T03:40:27;12.68;;;8.02;;
73841;SDS011;62184;52.006;5.924;2022-08-21T03:42:53;11.98;;;7.78;;
73841;SDS011;62184;52.006;5.924;2022-08-21T03:45:20;13.20;;;7.18;;
73841;SDS011;62184;52.006;5.924;2022-08-21T03:47:50;15.35;;;7.18;;
73841;SDS011;62184;52.006;5.924;2022-08-21T03:50:23;14.73;;;7.73;;
73841;SDS011;62184;52.006;5.924;2022-08-21T03:52:55;14.27;;;8.27;;
73841;SDS011;62184;52.006;5.924;2022-08-21T03:55:23;14.25;;;8.07;;
73841;SDS011;62184;52.006;5.924;2022-08-21T03:57:51;13.27;;;8.63;;
73841;SDS011;62184;52.006;5.924;2022-08-21T04:00:18;20.33;;;8.85;;
73841;SDS011;62184;52.006;5.924;2022-08-21T04:02:46;15.20;;;8.97;;
73841;SDS011;62184;52.006;5.924;2022-08-21T04:05:13;15.40;;;8.38;;
73841;SDS011;62184;52.006;5.924;2022-08-21T04:07:42;15.05;;;8.45;;
73841;SDS011;62184;52.006;5.924;2022-08-21T04:10:11;18.77;;;9.45;;
73841;SDS011;62184;52.006;5.924;2022-08-21T04:12:37;18.25;;;9.43;;
73841;SDS011;62184;52.006;5.924;2022-08-21T04:15:04;13.40;;;8.97;;
73841;SDS011;62184;52.006;5.924;2022-08-21T04:17:31;16.52;;;9.27;;
73841;SDS011;62184;52.006;5.924;2022-08-21T04:19:57;16.42;;;10.02;;
73841;SDS011;62184;52.006;5.924;2022-08-21T04:22:24;12.90;;;8.18;;
73841;SDS011;62184;52.006;5.924;2022-08-21T04:24:50;14.43;;;8.88;;
73841;SDS011;62184;52.006;5.924;2022-08-21T04:27:19;15.10;;;8.80;;
73841;SDS011;62184;52.006;5.924;2022-08-21T04:29:46;16.13;;;8.65;;
73841;SDS011;62184;52.006;5.924;2022-08-21T04:32:12;14.38;;;8.75;;
73841;SDS011;62184;52.006;5.924;2022-08-21T04:34:38;15.32;;;8.93;;
73841;SDS011;62184;52.006;5.924;2022-08-21T04:37:05;14.27;;;9.25;;
73841;SDS011;62184;52.006;5.924;2022-08-21T04:39:31;13.80;;;8.67;;
73841;SDS011;62184;52.006;5.924;2022-08-21T04:41:57;15.13;;;9.43;;
73841;SDS011;62184;52.006;5.924;2022-08-21T04:44:27;13.13;;;8.70;;
73841;SDS011;62184;52.006;5.924;2022-08-21T04:46:53;16.80;;;8.45;;
73841;SDS011;62184;52.006;5.924;2022-08-21T04:49:19;14.32;;;9.25;;
73841;SDS011;62184;52.006;5.924;2022-08-21T04:51:46;13.40;;;9.00;;
73841;SDS011;62184;52.006;5.924;2022-08-21T04:54:13;16.58;;;8.38;;
73841;SDS011;62184;52.006;5.924;2022-08-21T04:56:45;14.88;;;9.00;;
73841;SDS011;62184;52.006;5.924;2022-08-21T04:59:19;16.48;;;8.18;;
73841;SDS011;62184;52.006;5.924;2022-08-21T05:01:55;15.63;;;9.35;;
73841;SDS011;62184;52.006;5.924;2022-08-21T05:04:23;14.53;;;9.00;;
73841;SDS011;62184;52.006;5.924;2022-08-21T05:06:54;15.60;;;9.57;;
73841;SDS011;62184;52.006;5.924;2022-08-21T05:09:25;14.65;;;9.65;;
73841;SDS011;62184;52.006;5.924;2022-08-21T05:11:53;17.58;;;9.23;;
73841;SDS011;62184;52.006;5.924;2022-08-21T05:14:21;18.73;;;10.77;;
73841;SDS011;62184;52.006;5.924;2022-08-21T05:16:48;14.73;;;8.53;;
73841;SDS011;62184;52.006;5.924;2022-08-21T05:19:17;13.60;;;8.38;;
73841;SDS011;62184;52.006;5.924;2022-08-21T05:21:44;14.35;;;9.45;;
73841;SDS011;62184;52.006;5.924;2022-08-21T05:24:11;13.57;;;8.88;;
73841;SDS011;62184;52.006;5.924;2022-08-21T05:26:38;15.48;;;8.55;;
73841;SDS011;62184;52.006;5.924;2022-08-21T05:29:05;14.50;;;8.57;;
73841;SDS011;62184;52.006;5.924;2022-08-21T05:31:32;14.52;;;8.57;;
73841;SDS011;62184;52.006;5.924;2022-08-21T05:33:59;15.52;;;8.65;;
73841;SDS011;62184;52.006;5.924;2022-08-21T05:36:28;15.43;;;8.60;;
73841;SDS011;62184;52.006;5.924;2022-08-21T05:38:55;15.13;;;8.80;;
73841;SDS011;62184;52.006;5.924;2022-08-21T05:41:21;15.87;;;9.00;;
73841;SDS011;62184;52.006;5.924;2022-08-21T05:43:48;15.70;;;9.55;;
73841;SDS011;62184;52.006;5.924;2022-08-21T05:46:14;14.82;;;10.25;;
73841;SDS011;62184;52.006;5.924;2022-08-21T05:48:41;16.65;;;9.32;;
73841;SDS011;62184;52.006;5.924;2022-08-21T05:51:08;14.48;;;9.15;;
73841;SDS011;62184;52.006;5.924;2022-08-21T05:53:41;19.33;;;10.03;;
73841;SDS011;62184;52.006;5.924;2022-08-21T05:56:09;16.75;;;9.77;;
73841;SDS011;62184;52.006;5.924;2022-08-21T05:58:37;16.38;;;10.65;;
73841;SDS011;62184;52.006;5.924;2022-08-21T06:01:04;14.55;;;9.88;;
73841;SDS011;62184;52.006;5.924;2022-08-21T06:03:32;15.50;;;10.52;;
73841;SDS011;62184;52.006;5.924;2022-08-21T06:06:02;15.83;;;10.23;;
73841;SDS011;62184;52.006;5.924;2022-08-21T06:08:29;17.85;;;11.10;;
73841;SDS011;62184;52.006;5.924;2022-08-21T06:10:59;15.40;;;11.13;;
73841;SDS011;62184;52.006;5.924;2022-08-21T06:13:27;19.05;;;10.10;;
73841;SDS011;62184;52.006;5.924;2022-08-21T06:16:00;15.02;;;9.60;;
73841;SDS011;62184;52.006;5.924;2022-08-21T06:18:29;17.63;;;9.77;;
73841;SDS011;62184;52.006;5.924;2022-08-21T06:20:56;17.85;;;10.05;;
73841;SDS011;62184;52.006;5.924;2022-08-21T06:23:22;17.27;;;10.25;;
73841;SDS011;62184;52.006;5.924;2022-08-21T06:25:48;15.90;;;10.43;;
73841;SDS011;62184;52.006;5.924;2022-08-21T06:28:17;16.98;;;10.80;;
73841;SDS011;62184;52.006;5.924;2022-08-21T06:30:44;17.70;;;9.00;;
73841;SDS011;62184;52.006;5.924;2022-08-21T06:33:10;14.68;;;8.85;;
73841;SDS011;62184;52.006;5.924;2022-08-21T06:35:37;18.05;;;10.18;;
73841;SDS011;62184;52.006;5.924;2022-08-21T06:38:03;21.02;;;9.13;;
73841;SDS011;62184;52.006;5.924;2022-08-21T06:40:30;20.15;;;9.82;;
73841;SDS011;62184;52.006;5.924;2022-08-21T06:42:57;19.13;;;8.60;;
73841;SDS011;62184;52.006;5.924;2022-08-21T06:45:34;15.38;;;8.38;;
73841;SDS011;62184;52.006;5.924;2022-08-21T06:48:01;16.25;;;9.05;;
73841;SDS011;62184;52.006;5.924;2022-08-21T06:50:32;15.55;;;8.50;;
73841;SDS011;62184;52.006;5.924;2022-08-21T06:53:00;17.48;;;9.20;;
73841;SDS011;62184;52.006;5.924;2022-08-21T06:55:32;18.50;;;9.27;;
73841;SDS011;62184;52.006;5.924;2022-08-21T06:57:59;15.70;;;8.80;;
73841;SDS011;62184;52.006;5.924;2022-08-21T07:00:26;16.65;;;9.35;;
73841;SDS011;62184;52.006;5.924;2022-08-21T07:02:55;16.15;;;8.25;;
73841;SDS011;62184;52.006;5.924;2022-08-21T07:05:22;15.93;;;9.68;;
73841;SDS011;62184;52.006;5.924;2022-08-21T07:07:52;19.47;;;8.80;;
73841;SDS011;62184;52.006;5.924;2022-08-21T07:10:18;16.38;;;9.00;;
73841;SDS011;62184;52.006;5.924;2022-08-21T07:12:44;15.25;;;8.68;;
73841;SDS011;62184;52.006;5.924;2022-08-21T07:15:11;17.67;;;8.35;;
73841;SDS011;62184;52.006;5.924;2022-08-21T07:17:37;16.13;;;8.82;;
73841;SDS011;62184;52.006;5.924;2022-08-21T07:20:07;17.07;;;9.00;;
73841;SDS011;62184;52.006;5.924;2022-08-21T07:22:34;17.77;;;8.25;;
73841;SDS011;62184;52.006;5.924;2022-08-21T07:25:03;17.15;;;8.57;;
73841;SDS011;62184;52.006;5.924;2022-08-21T07:27:32;14.90;;;8.40;;
73841;SDS011;62184;52.006;5.924;2022-08-21T07:29:58;15.73;;;8.85;;
73841;SDS011;62184;52.006;5.924;2022-08-21T07:32:24;16.27;;;7.90;;
73841;SDS011;62184;52.006;5.924;2022-08-21T07:34:51;16.42;;;7.70;;
73841;SDS011;62184;52.006;5.924;2022-08-21T07:37:20;15.18;;;7.78;;
73841;SDS011;62184;52.006;5.924;2022-08-21T07:39:46;14.68;;;7.70;;
73841;SDS011;62184;52.006;5.924;2022-08-21T07:42:13;17.10;;;7.35;;
73841;SDS011;62184;52.006;5.924;2022-08-21T07:44:39;15.67;;;7.33;;
73841;SDS011;62184;52.006;5.924;2022-08-21T07:47:05;18.67;;;7.40;;
73841;SDS011;62184;52.006;5.924;2022-08-21T07:49:32;16.30;;;7.85;;
73841;SDS011;62184;52.006;5.924;2022-08-21T07:51:58;13.32;;;6.88;;
73841;SDS011;62184;52.006;5.924;2022-08-21T07:54:27;14.20;;;6.28;;
73841;SDS011;62184;52.006;5.924;2022-08-21T07:56:54;16.43;;;7.20;;
73841;SDS011;62184;52.006;5.924;2022-08-21T07:59:20;18.90;;;7.28;;
73841;SDS011;62184;52.006;5.924;2022-08-21T08:01:46;18.83;;;7.47;;
73841;SDS011;62184;52.006;5.924;2022-08-21T08:04:13;14.77;;;7.10;;
73841;SDS011;62184;52.006;5.924;2022-08-21T08:06:39;15.50;;;7.55;;
73841;SDS011;62184;52.006;5.924;2022-08-21T08:09:06;14.03;;;6.63;;
73841;SDS011;62184;52.006;5.924;2022-08-21T08:11:35;13.10;;;6.70;;
73841;SDS011;62184;52.006;5.924;2022-08-21T08:14:04;15.95;;;8.20;;
73841;SDS011;62184;52.006;5.924;2022-08-21T08:16:31;15.40;;;6.88;;
73841;SDS011;62184;52.006;5.924;2022-08-21T08:18:57;13.93;;;6.97;;
73841;SDS011;62184;52.006;5.924;2022-08-21T08:21:23;14.27;;;7.10;;
73841;SDS011;62184;52.006;5.924;2022-08-21T08:23:50;16.17;;;7.43;;
73841;SDS011;62184;52.006;5.924;2022-08-21T08:26:16;15.10;;;6.70;;
73841;SDS011;62184;52.006;5.924;2022-08-21T08:28:45;17.35;;;6.97;;
73841;SDS011;62184;52.006;5.924;2022-08-21T08:31:12;14.05;;;6.72;;
73841;SDS011;62184;52.006;5.924;2022-08-21T08:33:39;13.83;;;7.27;;
73841;SDS011;62184;52.006;5.924;2022-08-21T08:36:11;15.25;;;6.82;;
73841;SDS011;62184;52.006;5.924;2022-08-21T08:38:40;15.55;;;7.53;;
73841;SDS011;62184;52.006;5.924;2022-08-21T08:41:08;14.93;;;7.15;;
73841;SDS011;62184;52.006;5.924;2022-08-21T08:43:39;18.13;;;7.22;;
73841;SDS011;62184;52.006;5.924;2022-08-21T08:46:18;18.00;;;7.93;;
73841;SDS011;62184;52.006;5.924;2022-08-21T08:48:54;14.25;;;7.15;;
73841;SDS011;62184;52.006;5.924;2022-08-21T08:51:29;14.75;;;6.50;;
73841;SDS011;62184;52.006;5.924;2022-08-21T08:54:06;14.60;;;6.85;;
73841;SDS011;62184;52.006;5.924;2022-08-21T08:56:40;11.02;;;5.78;;
73841;SDS011;62184;52.006;5.924;2022-08-21T08:59:11;9.63;;;5.40;;
73841;SDS011;62184;52.006;5.924;2022-08-21T09:01:44;16.50;;;5.85;;
73841;SDS011;62184;52.006;5.924;2022-08-21T09:04:11;11.15;;;5.00;;
73841;SDS011;62184;52.006;5.924;2022-08-21T09:06:52;13.77;;;5.00;;
73841;SDS011;62184;52.006;5.924;2022-08-21T09:09:37;14.98;;;5.60;;
73841;SDS011;62184;52.006;5.924;2022-08-21T09:12:25;13.57;;;5.13;;
73841;SDS011;62184;52.006;5.924;2022-08-21T09:15:09;12.82;;;4.82;;
73841;SDS011;62184;52.006;5.924;2022-08-21T09:17:51;12.35;;;5.20;;
73841;SDS011;62184;52.006;5.924;2022-08-21T09:20:38;14.10;;;5.05;;
73841;SDS011;62184;52.006;5.924;2022-08-21T09:23:21;14.13;;;4.50;;
73841;SDS011;62184;52.006;5.924;2022-08-21T09:26:02;12.07;;;4.17;;
73841;SDS011;62184;52.006;5.924;2022-08-21T09:28:38;12.38;;;3.90;;
73841;SDS011;62184;52.006;5.924;2022-08-21T09:31:08;15.70;;;5.10;;
73841;SDS011;62184;52.006;5.924;2022-08-21T09:33:46;10.23;;;3.90;;
73841;SDS011;62184;52.006;5.924;2022-08-21T09:36:13;10.00;;;3.92;;
73841;SDS011;62184;52.006;5.924;2022-08-21T09:38:52;8.93;;;3.30;;
73841;SDS011;62184;52.006;5.924;2022-08-21T09:41:25;7.90;;;3.33;;
73841;SDS011;62184;52.006;5.924;2022-08-21T09:43:54;12.88;;;4.35;;
73841;SDS011;62184;52.006;5.924;2022-08-21T09:46:24;9.68;;;2.80;;
73841;SDS011;62184;52.006;5.924;2022-08-21T09:48:53;11.15;;;3.50;;
73841;SDS011;62184;52.006;5.924;2022-08-21T09:51:23;8.20;;;2.57;;
73841;SDS011;62184;52.006;5.924;2022-08-21T09:53:55;9.73;;;2.88;;
73841;SDS011;62184;52.006;5.924;2022-08-21T09:56:39;7.95;;;3.22;;
73841;SDS011;62184;52.006;5.924;2022-08-21T09:59:25;7.45;;;2.75;;
73841;SDS011;62184;52.006;5.924;2022-08-21T10:01:57;10.60;;;3.35;;
73841;SDS011;62184;52.006;5.924;2022-08-21T10:04:28;10.70;;;3.00;;
73841;SDS011;62184;52.006;5.924;2022-08-21T10:07:06;8.95;;;2.70;;
73841;SDS011;62184;52.006;5.924;2022-08-21T10:09:34;8.57;;;2.92;;
73841;SDS011;62184;52.006;5.924;2022-08-21T10:12:06;8.35;;;2.83;;
73841;SDS011;62184;52.006;5.924;2022-08-21T10:14:44;8.02;;;2.53;;
73841;SDS011;62184;52.006;5.924;2022-08-21T10:17:31;9.77;;;2.33;;
73841;SDS011;62184;52.006;5.924;2022-08-21T10:20:12;8.93;;;2.60;;
73841;SDS011;62184;52.006;5.924;2022-08-21T10:22:51;7.55;;;2.45;;
73841;SDS011;62184;52.006;5.924;2022-08-21T10:25:33;10.70;;;2.63;;
73841;SDS011;62184;52.006;5.924;2022-08-21T10:28:10;7.78;;;1.90;;
73841;SDS011;62184;52.006;5.924;2022-08-21T10:30:50;10.90;;;2.57;;
73841;SDS011;62184;52.006;5.924;2022-08-21T10:33:31;9.63;;;2.60;;
73841;SDS011;62184;52.006;5.924;2022-08-21T10:36:12;7.25;;;2.55;;
73841;SDS011;62184;52.006;5.924;2022-08-21T10:38:50;8.18;;;2.45;;
73841;SDS011;62184;52.006;5.924;2022-08-21T10:41:29;7.13;;;2.50;;
73841;SDS011;62184;52.006;5.924;2022-08-21T10:44:23;6.47;;;1.97;;
73841;SDS011;62184;52.006;5.924;2022-08-21T10:47:08;10.38;;;3.20;;
73841;SDS011;62184;52.006;5.924;2022-08-21T10:49:49;9.00;;;3.22;;
73841;SDS011;62184;52.006;5.924;2022-08-21T10:52:31;7.60;;;2.42;;
73841;SDS011;62184;52.006;5.924;2022-08-21T10:55:16;8.48;;;2.60;;
73841;SDS011;62184;52.006;5.924;2022-08-21T10:57:47;8.30;;;2.47;;
73841;SDS011;62184;52.006;5.924;2022-08-21T11:00:21;7.85;;;2.45;;
73841;SDS011;62184;52.006;5.924;2022-08-21T11:02:55;10.60;;;2.45;;
73841;SDS011;62184;52.006;5.924;2022-08-21T11:05:38;7.35;;;2.10;;
73841;SDS011;62184;52.006;5.924;2022-08-21T11:08:14;5.43;;;1.92;;
73841;SDS011;62184;52.006;5.924;2022-08-21T11:10:48;9.00;;;2.00;;
73841;SDS011;62184;52.006;5.924;2022-08-21T11:13:22;5.45;;;1.67;;
73841;SDS011;62184;52.006;5.924;2022-08-21T11:16:07;7.30;;;2.40;;
73841;SDS011;62184;52.006;5.924;2022-08-21T11:18:50;6.78;;;2.03;;
73841;SDS011;62184;52.006;5.924;2022-08-21T11:21:31;6.68;;;2.25;;
73841;SDS011;62184;52.006;5.924;2022-08-21T11:24:12;9.17;;;2.30;;
73841;SDS011;62184;52.006;5.924;2022-08-21T11:26:57;7.57;;;2.20;;
73841;SDS011;62184;52.006;5.924;2022-08-21T11:29:31;9.25;;;3.03;;
73841;SDS011;62184;52.006;5.924;2022-08-21T11:32:09;7.60;;;2.40;;
73841;SDS011;62184;52.006;5.924;2022-08-21T11:35:06;6.60;;;2.25;;
73841;SDS011;62184;52.006;5.924;2022-08-21T11:37:46;7.20;;;2.13;;
73841;SDS011;62184;52.006;5.924;2022-08-21T11:40:35;6.78;;;2.15;;
73841;SDS011;62184;52.006;5.924;2022-08-21T11:43:27;5.72;;;2.45;;
73841;SDS011;62184;52.006;5.924;2022-08-21T11:46:10;6.93;;;2.45;;
73841;SDS011;62184;52.006;5.924;2022-08-21T11:48:56;7.78;;;2.65;;
73841;SDS011;62184;52.006;5.924;2022-08-21T11:51:42;8.53;;;2.20;;
73841;SDS011;62184;52.006;5.924;2022-08-21T11:54:24;6.70;;;2.28;;
73841;SDS011;62184;52.006;5.924;2022-08-21T11:56:57;5.75;;;2.10;;
73841;SDS011;62184;52.006;5.924;2022-08-21T11:59:32;8.15;;;2.00;;
73841;SDS011;62184;52.006;5.924;2022-08-21T12:02:07;6.50;;;2.20;;
73841;SDS011;62184;52.006;5.924;2022-08-21T12:04:44;7.80;;;2.43;;
73841;SDS011;62184;52.006;5.924;2022-08-21T12:07:18;7.85;;;2.15;;
73841;SDS011;62184;52.006;5.924;2022-08-21T12:10:00;6.68;;;2.85;;
73841;SDS011;62184;52.006;5.924;2022-08-21T12:12:31;8.93;;;2.30;;
73841;SDS011;62184;52.006;5.924;2022-08-21T12:15:13;6.30;;;2.17;;
73841;SDS011;62184;52.006;5.924;2022-08-21T12:17:57;7.43;;;2.27;;
73841;SDS011;62184;52.006;5.924;2022-08-21T12:23:25;6.50;;;2.30;;
73841;SDS011;62184;52.006;5.924;2022-08-21T12:26:13;6.55;;;2.65;;
73841;SDS011;62184;52.006;5.924;2022-08-21T12:28:49;6.43;;;2.25;;
73841;SDS011;62184;52.006;5.924;2022-08-21T12:31:28;6.87;;;2.10;;
73841;SDS011;62184;52.006;5.924;2022-08-21T12:33:56;7.20;;;2.10;;
73841;SDS011;62184;52.006;5.924;2022-08-21T12:36:33;7.05;;;2.50;;
73841;SDS011;62184;52.006;5.924;2022-08-21T12:39:11;6.20;;;2.08;;
73841;SDS011;62184;52.006;5.924;2022-08-21T12:41:47;7.20;;;1.98;;
73841;SDS011;62184;52.006;5.924;2022-08-21T12:44:21;6.27;;;2.00;;
73841;SDS011;62184;52.006;5.924;2022-08-21T12:46:59;6.35;;;2.05;;
73841;SDS011;62184;52.006;5.924;2022-08-21T12:49:32;10.35;;;2.83;;
73841;SDS011;62184;52.006;5.924;2022-08-21T12:52:05;7.57;;;2.45;;
73841;SDS011;62184;52.006;5.924;2022-08-21T12:54:43;8.20;;;2.47;;
73841;SDS011;62184;52.006;5.924;2022-08-21T12:57:20;7.80;;;2.63;;
73841;SDS011;62184;52.006;5.924;2022-08-21T12:59:53;7.70;;;1.80;;
73841;SDS011;62184;52.006;5.924;2022-08-21T13:02:23;7.78;;;2.92;;
73841;SDS011;62184;52.006;5.924;2022-08-21T13:04:56;6.75;;;2.20;;
73841;SDS011;62184;52.006;5.924;2022-08-21T13:07:28;5.60;;;2.15;;
73841;SDS011;62184;52.006;5.924;2022-08-21T13:09:58;5.97;;;1.70;;
73841;SDS011;62184;52.006;5.924;2022-08-21T13:12:32;5.57;;;1.80;;
73841;SDS011;62184;52.006;5.924;2022-08-21T13:15:03;7.05;;;1.80;;
73841;SDS011;62184;52.006;5.924;2022-08-21T13:17:34;6.47;;;1.85;;
73841;SDS011;62184;52.006;5.924;2022-08-21T13:20:08;6.55;;;2.30;;
73841;SDS011;62184;52.006;5.924;2022-08-21T13:22:45;6.37;;;2.20;;
73841;SDS011;62184;52.006;5.924;2022-08-21T13:25:12;6.18;;;1.98;;
73841;SDS011;62184;52.006;5.924;2022-08-21T13:27:56;7.00;;;2.10;;
73841;SDS011;62184;52.006;5.924;2022-08-21T13:30:26;8.27;;;2.35;;
73841;SDS011;62184;52.006;5.924;2022-08-21T13:32:56;5.82;;;2.10;;
73841;SDS011;62184;52.006;5.924;2022-08-21T13:35:27;8.60;;;2.30;;
73841;SDS011;62184;52.006;5.924;2022-08-21T13:38:11;7.10;;;2.10;;
73841;SDS011;62184;52.006;5.924;2022-08-21T13:40:39;6.82;;;1.98;;
73841;SDS011;62184;52.006;5.924;2022-08-21T13:43:20;5.30;;;1.60;;
73841;SDS011;62184;52.006;5.924;2022-08-21T13:45:52;6.78;;;2.60;;
73841;SDS011;62184;52.006;5.924;2022-08-21T13:48:22;5.40;;;2.40;;
73841;SDS011;62184;52.006;5.924;2022-08-21T13:50:53;5.72;;;1.98;;
73841;SDS011;62184;52.006;5.924;2022-08-21T13:53:21;6.25;;;2.22;;
73841;SDS011;62184;52.006;5.924;2022-08-21T13:55:54;5.75;;;2.00;;
73841;SDS011;62184;52.006;5.924;2022-08-21T13:58:29;7.22;;;2.45;;
73841;SDS011;62184;52.006;5.924;2022-08-21T14:00:58;6.93;;;2.10;;
73841;SDS011;62184;52.006;5.924;2022-08-21T14:03:30;6.30;;;2.20;;
73841;SDS011;62184;52.006;5.924;2022-08-21T14:06:10;5.57;;;1.90;;
73841;SDS011;62184;52.006;5.924;2022-08-21T14:08:38;5.30;;;2.20;;
73841;SDS011;62184;52.006;5.924;2022-08-21T14:11:09;6.45;;;3.05;;
73841;SDS011;62184;52.006;5.924;2022-08-21T14:13:41;5.97;;;2.20;;
73841;SDS011;62184;52.006;5.924;2022-08-21T14:16:13;6.97;;;1.90;;
73841;SDS011;62184;52.006;5.924;2022-08-21T14:18:45;5.85;;;2.10;;
73841;SDS011;62184;52.006;5.924;2022-08-21T14:21:23;5.80;;;1.92;;
73841;SDS011;62184;52.006;5.924;2022-08-21T14:24:04;6.63;;;2.45;;
73841;SDS011;62184;52.006;5.924;2022-08-21T14:26:35;5.67;;;1.83;;
73841;SDS011;62184;52.006;5.924;2022-08-21T14:29:14;5.65;;;1.98;;
73841;SDS011;62184;52.006;5.924;2022-08-21T14:31:48;5.32;;;1.73;;
73841;SDS011;62184;52.006;5.924;2022-08-21T14:34:17;7.60;;;2.10;;
73841;SDS011;62184;52.006;5.924;2022-08-21T14:36:44;4.88;;;1.80;;
73841;SDS011;62184;52.006;5.924;2022-08-21T14:39:10;4.43;;;1.50;;
73841;SDS011;62184;52.006;5.924;2022-08-21T14:41:36;6.95;;;2.08;;
73841;SDS011;62184;52.006;5.924;2022-08-21T14:44:03;6.72;;;1.90;;
73841;SDS011;62184;52.006;5.924;2022-08-21T14:46:35;5.70;;;1.70;;
73841;SDS011;62184;52.006;5.924;2022-08-21T14:49:02;5.07;;;1.55;;
73841;SDS011;62184;52.006;5.924;2022-08-21T14:51:30;6.07;;;1.80;;
73841;SDS011;62184;52.006;5.924;2022-08-21T14:53:56;6.03;;;1.77;;
73841;SDS011;62184;52.006;5.924;2022-08-21T14:56:23;7.78;;;2.22;;
73841;SDS011;62184;52.006;5.924;2022-08-21T14:58:49;7.03;;;1.73;;
73841;SDS011;62184;52.006;5.924;2022-08-21T15:01:17;5.32;;;2.15;;
73841;SDS011;62184;52.006;5.924;2022-08-21T15:03:50;6.97;;;2.00;;
73841;SDS011;62184;52.006;5.924;2022-08-21T15:06:16;7.20;;;2.30;;